Time;durP1;ratioP1;P1;durP2;ratioP2;P2;SDS_P1;SDS_P2;PMS_P1;PMS_P2;Temp;Humidity;BMP_temperature;BMP_pressure;BME280_temperature;BME280_humidity;BME280_pressure;Samples;Min_cycle;Max_cycle;Signal;HPM_P1;HPM_P2
2021/07/18 00:00:32;;;;;;;2.20;1.10;;;27.30;99.90;;;;;;5058932;28;20205;-96
2021/07/18 00:03:07;;;;;;;1.73;1.10;;;27.10;99.90;;;;;;5042896;28;20225;-96
2021/07/18 00:05:40;;;;;;;1.77;1.00;;;27.10;99.90;;;;;;5026378;28;20185;-93
2021/07/18 00:08:14;;;;;;;2.97;1.10;;;27.00;99.90;;;;;;5058790;28;20200;-96
2021/07/18 00:10:45;;;;;;;2.23;1.37;;;27.00;99.90;;;;;;5037902;28;20216;-96
2021/07/18 00:13:17;;;;;;;1.40;1.20;;;27.20;99.90;;;;;;5033621;28;20208;-96
2021/07/18 00:15:49;;;;;;;3.30;1.10;;;27.00;99.90;;;;;;5019339;28;20214;-96
2021/07/18 00:18:20;;;;;;;3.77;1.60;;;27.00;99.90;;;;;;5018165;28;20565;-96
2021/07/18 00:20:52;;;;;;;1.23;1.13;;;27.30;99.90;;;;;;5001067;28;20650;-96
2021/07/18 00:23:25;;;;;;;1.80;1.23;;;27.40;99.90;;;;;;5019038;28;20217;-95
2021/07/18 00:25:56;;;;;;;1.47;1.00;;;27.40;99.90;;;;;;5017584;28;20217;-95
2021/07/18 00:28:27;;;;;;;0.83;0.83;;;27.20;99.90;;;;;;5000176;28;20316;-95
2021/07/18 00:30:59;;;;;;;1.13;1.03;;;26.70;99.90;;;;;;5016936;28;20562;-95
2021/07/18 00:33:31;;;;;;;1.57;1.00;;;26.70;99.90;;;;;;5017602;28;20210;-96
2021/07/18 00:36:01;;;;;;;1.10;1.00;;;27.00;99.90;;;;;;5016528;28;20225;-96
2021/07/18 00:38:34;;;;;;;5.60;1.30;;;27.00;99.90;;;;;;5018627;28;20237;-96
2021/07/18 00:41:06;;;;;;;1.67;0.90;;;26.30;99.90;;;;;;5036365;28;20295;-95
2021/07/18 00:43:37;;;;;;;2.03;1.00;;;26.20;99.90;;;;;;5038156;28;20292;-96
2021/07/18 00:46:08;;;;;;;1.00;0.90;;;25.90;99.90;;;;;;5020708;28;20582;-95
2021/07/18 00:48:47;;;;;;;3.03;1.00;;;25.50;99.90;;;;;;5038573;28;20205;-94
2021/07/18 00:51:19;;;;;;;4.23;1.50;;;25.60;99.90;;;;;;5037214;28;20228;-95
2021/07/18 00:53:53;;;;;;;2.13;1.20;;;25.80;99.90;;;;;;5021304;28;20243;-95
2021/07/18 00:56:25;;;;;;;2.30;1.10;;;26.30;99.90;;;;;;5048920;28;20204;-94
2021/07/18 00:58:56;;;;;;;1.23;1.07;;;26.40;99.90;;;;;;5056556;28;20232;-95
2021/07/18 01:01:29;;;;;;;1.83;0.90;;;26.60;99.90;;;;;;5035816;28;20216;-94
2021/07/18 01:04:00;;;;;;;1.53;1.20;;;26.60;99.90;;;;;;5036028;28;20202;-94
2021/07/18 01:06:34;;;;;;;3.87;1.23;;;27.40;99.90;;;;;;5003469;28;20201;-96
2021/07/18 01:09:09;;;;;;;2.20;0.90;;;27.60;99.90;;;;;;5017231;28;20530;-95
2021/07/18 01:11:39;;;;;;;1.23;1.10;;;27.30;99.90;;;;;;5015908;28;20319;-95
2021/07/18 01:14:11;;;;;;;1.63;0.90;;;27.90;99.90;;;;;;4999846;28;20274;-94
2021/07/18 01:16:42;;;;;;;2.43;0.93;;;28.40;99.90;;;;;;5016665;28;20237;-95
2021/07/18 01:19:14;;;;;;;1.20;0.80;;;28.30;99.90;;;;;;5017053;28;20272;-94
2021/07/18 01:21:48;;;;;;;1.47;0.97;;;28.20;99.90;;;;;;5025765;28;20232;-92
2021/07/18 01:24:21;;;;;;;1.50;0.73;;;28.60;99.90;;;;;;5054487;28;20220;-95
2021/07/18 01:26:53;;;;;;;2.00;0.93;;;28.80;99.90;;;;;;5051279;28;20209;-96
2021/07/18 01:29:26;;;;;;;2.23;1.40;;;28.80;99.90;;;;;;5047404;28;20247;-95
2021/07/18 01:31:58;;;;;;;1.60;1.27;;;28.90;99.90;;;;;;5045424;28;20665;-95
2021/07/18 01:34:30;;;;;;;1.90;0.90;;;29.00;99.90;;;;;;5040093;28;20216;-95
2021/07/18 01:37:01;;;;;;;1.93;1.10;;;29.00;99.90;;;;;;5036001;28;20268;-95
2021/07/18 01:39:35;;;;;;;1.50;0.80;;;28.80;99.90;;;;;;5035895;28;20209;-95
2021/07/18 01:42:07;;;;;;;1.47;0.87;;;28.70;99.90;;;;;;5036104;28;20220;-96
2021/07/18 01:44:38;;;;;;;0.97;0.70;;;28.90;99.90;;;;;;5035416;28;20294;-96
2021/07/18 01:47:11;;;;;;;1.27;0.80;;;29.00;99.90;;;;;;5034525;28;20205;-94
2021/07/18 01:49:43;;;;;;;1.53;1.17;;;28.80;99.90;;;;;;5035952;28;20219;-94
2021/07/18 01:52:14;;;;;;;2.37;1.20;;;29.00;99.90;;;;;;5035136;28;20236;-94
2021/07/18 01:54:47;;;;;;;3.87;1.37;;;28.90;99.90;;;;;;5035325;28;20286;-94
2021/07/18 01:57:21;;;;;;;2.07;1.10;;;29.30;99.90;;;;;;5035306;28;20244;-94
2021/07/18 01:59:52;;;;;;;3.57;1.10;;;29.40;99.90;;;;;;5035911;28;20576;-94
2021/07/18 02:02:24;;;;;;;1.80;1.10;;;28.70;99.90;;;;;;5020912;28;20209;-95
2021/07/18 02:04:56;;;;;;;1.60;0.90;;;28.40;99.90;;;;;;5037790;28;20292;-94
2021/07/18 02:07:29;;;;;;;2.20;1.00;;;28.50;99.90;;;;;;5052502;28;20221;-93
2021/07/18 02:10:03;;;;;;;1.63;1.00;;;28.60;99.90;;;;;;5049549;28;20203;-95
2021/07/18 02:12:35;;;;;;;1.97;1.10;;;28.90;99.90;;;;;;5032046;28;20236;-93
2021/07/18 02:15:09;;;;;;;1.40;1.07;;;28.90;99.90;;;;;;5025146;28;20205;-96
2021/07/18 02:17:47;;;;;;;1.33;0.90;;;28.70;99.90;;;;;;5041993;28;20214;-96
2021/07/18 02:20:23;;;;;;;2.17;1.30;;;28.30;99.90;;;;;;5039616;28;20951;-96
2021/07/18 02:22:57;;;;;;;1.77;1.00;;;27.70;99.90;;;;;;5021329;28;20205;-96
2021/07/18 02:25:38;;;;;;;2.30;1.10;;;26.80;99.90;;;;;;5023025;28;20217;-96
2021/07/18 02:28:10;;;;;;;0.80;0.80;;;25.80;99.90;;;;;;5021756;28;20676;-96
2021/07/18 02:30:45;;;;;;;2.07;1.00;;;25.00;99.90;;;;;;5021084;28;20620;-96
2021/07/18 02:33:20;;;;;;;2.20;0.90;;;24.30;99.90;;;;;;5020089;28;20245;-95
2021/07/18 02:36:00;;;;;;;3.23;1.47;;;24.10;99.90;;;;;;5036255;28;20228;-95
2021/07/18 02:38:33;;;;;;;3.60;1.10;;;23.80;99.90;;;;;;5024462;28;20208;-95
2021/07/18 02:41:12;;;;;;;1.70;1.10;;;23.40;99.90;;;;;;5025198;28;20279;-96
2021/07/18 02:43:44;;;;;;;3.60;1.63;;;23.10;99.90;;;;;;5041792;28;20205;-94
2021/07/18 02:46:29;;;;;;;2.33;1.07;;;22.80;99.90;;;;;;5042354;28;20209;-95
2021/07/18 02:49:04;;;;;;;2.93;1.17;;;22.60;99.90;;;;;;5042276;28;20216;-96
2021/07/18 02:51:37;;;;;;;1.27;0.90;;;22.30;99.90;;;;;;5042771;28;20232;-96
2021/07/18 02:54:11;;;;;;;4.20;1.47;;;22.30;99.90;;;;;;5043052;28;20251;-95
2021/07/18 02:56:46;;;;;;;2.80;1.47;;;22.10;99.90;;;;;;5037490;28;20255;-96
2021/07/18 02:59:17;;;;;;;2.60;1.00;;;22.10;99.90;;;;;;5042112;28;20223;-96
2021/07/18 03:01:49;;;;;;;1.13;1.00;;;21.90;99.90;;;;;;5041125;28;20723;-96
2021/07/18 03:04:20;;;;;;;1.10;0.90;;;21.70;99.90;;;;;;5008706;28;20217;-96
2021/07/18 03:06:51;;;;;;;4.00;1.40;;;21.60;99.90;;;;;;5041542;28;20197;-96
2021/07/18 03:09:23;;;;;;;4.97;1.40;;;21.50;99.90;;;;;;5042226;28;20220;-96
2021/07/18 03:11:56;;;;;;;4.10;1.27;;;21.40;99.90;;;;;;5038709;28;20269;-96
2021/07/18 03:14:27;;;;;;;2.30;0.80;;;21.40;99.90;;;;;;5038659;28;20709;-95
2021/07/18 03:16:59;;;;;;;2.43;1.00;;;21.20;99.90;;;;;;5039245;28;20288;-95
2021/07/18 03:19:31;;;;;;;2.10;1.00;;;21.10;99.90;;;;;;5021665;28;20689;-96
2021/07/18 03:22:02;;;;;;;1.70;1.00;;;21.00;99.90;;;;;;5020903;28;20220;-95
2021/07/18 03:24:33;;;;;;;1.47;0.90;;;20.90;99.90;;;;;;5039242;28;20217;-95
2021/07/18 03:27:09;;;;;;;2.97;0.93;;;20.80;99.90;;;;;;5038756;28;20237;-95
2021/07/18 03:29:40;;;;;;;1.33;0.90;;;20.60;99.90;;;;;;5038574;28;20220;-94
2021/07/18 03:32:12;;;;;;;2.87;1.10;;;20.50;99.90;;;;;;5038949;28;20212;-95
2021/07/18 03:34:43;;;;;;;1.70;0.80;;;20.40;99.90;;;;;;5038551;28;20322;-94
2021/07/18 03:37:14;;;;;;;3.43;1.10;;;20.30;99.90;;;;;;5038668;28;20209;-96
2021/07/18 03:39:45;;;;;;;2.00;1.00;;;20.30;99.90;;;;;;5053178;28;20731;-95
2021/07/18 03:42:19;;;;;;;3.03;0.90;;;20.20;99.90;;;;;;5040537;28;20227;-96
2021/07/18 03:44:50;;;;;;;1.07;0.77;;;20.10;99.90;;;;;;5058517;28;20300;-96
2021/07/18 03:47:22;;;;;;;1.33;0.80;;;20.00;99.90;;;;;;5058402;28;20212;-96
2021/07/18 03:49:54;;;;;;;1.07;0.90;;;19.90;99.90;;;;;;5059206;28;20228;-96
2021/07/18 03:52:27;;;;;;;3.20;0.87;;;19.80;99.90;;;;;;5040707;28;20262;-96
2021/07/18 03:54:59;;;;;;;2.40;1.10;;;19.70;99.90;;;;;;5058226;28;20644;-95
2021/07/18 03:57:34;;;;;;;2.60;1.10;;;19.60;99.90;;;;;;5041508;28;20218;-96
2021/07/18 04:00:09;;;;;;;0.87;0.87;;;19.50;99.90;;;;;;5049368;28;20220;-96
2021/07/18 04:02:40;;;;;;;1.93;1.00;;;19.50;99.90;;;;;;5039674;28;20347;-95
2021/07/18 04:05:12;;;;;;;1.70;0.87;;;19.50;99.90;;;;;;5040929;28;20248;-96
2021/07/18 04:07:44;;;;;;;1.23;0.87;;;19.30;99.90;;;;;;5042064;28;20209;-96
2021/07/18 04:10:17;;;;;;;1.80;0.70;;;19.20;99.90;;;;;;5027991;28;20275;-96
2021/07/18 04:12:51;;;;;;;1.33;0.80;;;19.10;99.90;;;;;;5021821;28;20213;-96
2021/07/18 04:15:25;;;;;;;1.80;0.70;;;19.00;99.90;;;;;;5021481;28;20213;-96
2021/07/18 04:17:56;;;;;;;1.60;0.63;;;18.90;99.90;;;;;;5021445;28;20206;-96
2021/07/18 04:20:28;;;;;;;1.63;0.87;;;18.80;99.90;;;;;;5019676;28;20209;-96
2021/07/18 04:23:00;;;;;;;1.40;0.80;;;18.70;99.90;;;;;;5021968;28;20248;-96
2021/07/18 04:25:35;;;;;;;3.80;0.80;;;18.80;99.90;;;;;;5021421;28;20213;-95
2021/07/18 04:28:09;;;;;;;3.53;0.80;;;18.70;99.90;;;;;;5030851;28;20225;-96
2021/07/18 04:30:40;;;;;;;2.53;1.20;;;18.60;99.90;;;;;;5061314;28;20215;-96
2021/07/18 04:33:12;;;;;;;2.13;0.90;;;18.50;99.90;;;;;;5045711;28;20229;-96
2021/07/18 04:35:44;;;;;;;3.60;0.87;;;18.50;99.90;;;;;;5033419;28;20221;-96
2021/07/18 04:38:15;;;;;;;0.93;0.60;;;18.40;99.90;;;;;;5030122;28;20224;-95
2021/07/18 04:40:48;;;;;;;2.50;0.80;;;18.40;99.90;;;;;;5026911;28;20236;-94
2021/07/18 04:43:23;;;;;;;1.20;0.67;;;18.40;99.90;;;;;;5026330;28;20628;-96
2021/07/18 04:45:54;;;;;;;2.60;0.80;;;18.30;99.90;;;;;;5020380;28;20209;-96
2021/07/18 04:48:25;;;;;;;1.57;0.60;;;18.30;99.90;;;;;;5025289;28;20205;-96
2021/07/18 04:50:58;;;;;;;1.67;0.70;;;18.30;99.90;;;;;;5020629;28;20209;-96
2021/07/18 04:53:29;;;;;;;1.00;0.70;;;18.20;99.90;;;;;;5038193;28;20267;-96
2021/07/18 04:56:00;;;;;;;1.93;0.80;;;18.20;99.90;;;;;;5022051;28;20232;-96
2021/07/18 04:58:34;;;;;;;3.10;0.70;;;18.10;99.90;;;;;;5039690;28;20212;-93
2021/07/18 05:01:07;;;;;;;2.30;0.90;;;18.00;99.90;;;;;;5038464;28;20272;-96
2021/07/18 05:03:39;;;;;;;1.00;0.70;;;17.90;99.90;;;;;;5040773;28;20240;-96
2021/07/18 05:06:13;;;;;;;2.90;1.50;;;17.90;99.90;;;;;;5024486;28;20208;-96
2021/07/18 05:08:44;;;;;;;3.27;1.30;;;17.80;99.90;;;;;;5041925;28;20232;-96
2021/07/18 05:11:19;;;;;;;2.33;1.37;;;17.70;99.90;;;;;;5042962;28;20209;-96
2021/07/18 05:13:53;;;;;;;1.70;0.80;;;17.70;99.90;;;;;;5043162;28;20270;-95
2021/07/18 05:16:25;;;;;;;1.33;0.77;;;17.60;99.90;;;;;;5043684;28;20240;-96
2021/07/18 05:18:57;;;;;;;2.50;0.80;;;17.50;99.90;;;;;;5045043;28;20211;-96
2021/07/18 05:21:29;;;;;;;2.07;0.80;;;17.50;99.90;;;;;;5028425;28;20209;-96
2021/07/18 05:24:04;;;;;;;2.80;0.97;;;17.40;99.90;;;;;;5053784;28;20213;-96
2021/07/18 05:26:35;;;;;;;2.27;1.00;;;17.30;99.90;;;;;;5063906;28;20188;-96
2021/07/18 05:29:08;;;;;;;4.60;0.93;;;17.30;99.90;;;;;;5056929;28;20252;-93
2021/07/18 05:31:40;;;;;;;3.70;1.27;;;17.20;99.90;;;;;;5060997;28;20204;-95
2021/07/18 05:34:11;;;;;;;5.27;0.90;;;17.20;99.90;;;;;;5059289;28;20285;-95
2021/07/18 05:36:43;;;;;;;4.07;1.27;;;17.20;99.90;;;;;;5074572;28;20231;-96
2021/07/18 05:39:15;;;;;;;2.87;0.90;;;17.10;99.90;;;;;;5072444;28;20216;-96
2021/07/18 05:41:49;;;;;;;3.03;1.17;;;17.00;99.90;;;;;;5042752;28;20291;-96
2021/07/18 05:44:23;;;;;;;2.80;1.10;;;17.00;99.90;;;;;;5045150;28;20264;-96
2021/07/18 05:46:54;;;;;;;2.03;1.00;;;16.90;99.90;;;;;;5037280;28;20613;-95
2021/07/18 05:49:26;;;;;;;2.47;0.80;;;16.90;99.90;;;;;;5036927;28;20236;-95
2021/07/18 05:51:57;;;;;;;3.53;1.00;;;16.80;99.90;;;;;;5036918;28;20212;-95
2021/07/18 05:54:30;;;;;;;3.70;1.00;;;16.70;99.90;;;;;;5019347;28;20237;-96
2021/07/18 05:57:03;;;;;;;3.63;1.00;;;16.60;99.90;;;;;;5037595;28;20654;-95
2021/07/18 05:59:36;;;;;;;3.43;1.00;;;16.60;99.90;;;;;;5037202;28;20248;-96
2021/07/18 06:02:07;;;;;;;2.43;0.80;;;16.60;99.90;;;;;;5036783;28;20570;-96
2021/07/18 06:04:39;;;;;;;2.03;0.80;;;16.50;99.90;;;;;;5036369;28;20205;-95
2021/07/18 06:07:11;;;;;;;3.87;0.87;;;16.40;99.90;;;;;;5036634;28;20233;-95
2021/07/18 06:09:42;;;;;;;2.67;1.00;;;16.40;99.90;;;;;;5036181;28;20274;-95
2021/07/18 06:12:14;;;;;;;3.07;1.10;;;16.30;99.90;;;;;;5035681;28;20748;-95
2021/07/18 06:14:50;;;;;;;4.57;1.17;;;16.30;99.90;;;;;;5037612;28;20692;-95
2021/07/18 06:17:24;;;;;;;5.83;0.90;;;16.30;99.90;;;;;;5037699;28;20287;-95
2021/07/18 06:19:55;;;;;;;1.90;0.83;;;16.20;99.90;;;;;;5035183;28;20295;-95
2021/07/18 06:22:27;;;;;;;4.50;1.00;;;16.20;99.90;;;;;;5037676;28;20599;-95
2021/07/18 06:24:58;;;;;;;3.70;0.90;;;16.20;99.90;;;;;;5019608;28;20779;-94
2021/07/18 06:27:30;;;;;;;2.63;1.20;;;16.10;99.90;;;;;;5020738;28;20709;-94
2021/07/18 06:30:03;;;;;;;4.27;0.97;;;16.10;99.90;;;;;;5038526;28;20197;-94
2021/07/18 06:32:34;;;;;;;4.93;1.30;;;16.00;99.90;;;;;;5021498;28;20239;-94
2021/07/18 06:35:07;;;;;;;6.53;1.10;;;16.10;99.90;;;;;;5041680;28;20252;-93
2021/07/18 06:37:38;;;;;;;4.50;1.23;;;16.00;99.90;;;;;;5041415;28;20237;-95
2021/07/18 06:40:14;;;;;;;3.53;1.13;;;16.00;99.90;;;;;;5043427;28;20280;-96
2021/07/18 06:42:45;;;;;;;3.10;1.20;;;16.00;99.90;;;;;;5055660;28;20205;-96
2021/07/18 06:45:19;;;;;;;2.83;1.20;;;15.90;99.90;;;;;;5057691;28;20224;-96
2021/07/18 06:47:50;;;;;;;3.87;1.30;;;16.00;99.90;;;;;;5051938;28;20240;-96
2021/07/18 06:50:21;;;;;;;2.20;1.00;;;15.90;99.90;;;;;;5047630;28;20201;-95
2021/07/18 06:52:53;;;;;;;3.97;1.27;;;15.90;99.90;;;;;;5047673;28;20720;-94
2021/07/18 06:55:25;;;;;;;2.87;0.83;;;15.90;99.90;;;;;;5055821;28;20243;-95
2021/07/18 06:57:57;;;;;;;2.93;0.93;;;15.80;99.90;;;;;;5065980;28;20216;-96
2021/07/18 07:00:32;;;;;;;4.67;1.20;;;15.70;99.90;;;;;;5031278;28;20284;-96
2021/07/18 07:03:07;;;;;;;4.00;1.20;;;15.70;99.90;;;;;;5052984;28;20193;-95
2021/07/18 07:05:38;;;;;;;2.70;1.20;;;15.70;99.90;;;;;;5062017;28;20204;-96
2021/07/18 07:08:09;;;;;;;3.20;1.27;;;15.70;99.90;;;;;;5061588;28;20551;-96
2021/07/18 07:10:43;;;;;;;4.67;1.10;;;15.60;99.90;;;;;;5042022;28;20544;-95
2021/07/18 07:13:14;;;;;;;5.00;0.90;;;15.60;99.90;;;;;;5044260;28;20240;-94
2021/07/18 07:15:48;;;;;;;4.97;1.37;;;15.60;99.90;;;;;;5039939;28;20636;-96
2021/07/18 07:18:21;;;;;;;4.57;1.10;;;15.50;99.90;;;;;;5040201;28;20209;-95
2021/07/18 07:20:53;;;;;;;3.33;1.27;;;15.50;99.90;;;;;;5039062;28;20219;-95
2021/07/18 07:23:28;;;;;;;3.57;0.93;;;15.40;99.90;;;;;;5040583;28;20217;-95
2021/07/18 07:25:59;;;;;;;4.83;1.43;;;15.50;99.90;;;;;;5040895;28;20296;-95
2021/07/18 07:28:31;;;;;;;4.43;1.13;;;15.40;99.90;;;;;;5040052;28;20246;-95
2021/07/18 07:31:05;;;;;;;5.60;1.33;;;15.30;99.90;;;;;;5056966;28;20228;-94
2021/07/18 07:33:37;;;;;;;5.43;1.00;;;15.30;99.90;;;;;;5045324;28;20209;-95
2021/07/18 07:36:11;;;;;;;2.40;0.93;;;15.30;99.90;;;;;;5056137;28;20266;-93
2021/07/18 07:38:43;;;;;;;5.27;1.50;;;15.30;99.90;;;;;;5078502;28;20215;-95
2021/07/18 07:41:15;;;;;;;2.70;1.17;;;15.20;99.90;;;;;;5075011;28;20204;-96
2021/07/18 07:44:00;;;;;;;2.20;1.13;;;15.20;99.90;;;;;;5058702;28;20208;-96
2021/07/18 07:46:40;;;;;;;3.33;1.20;;;15.20;99.90;;;;;;5069088;28;20197;-96
2021/07/18 07:49:14;;;;;;;3.03;1.03;;;15.20;99.90;;;;;;5056881;28;20280;-96
2021/07/18 07:51:45;;;;;;;4.37;1.40;;;15.20;99.90;;;;;;5041687;28;20239;-95
2021/07/18 07:54:17;;;;;;;3.00;1.57;;;15.30;99.90;;;;;;5037571;28;20582;-96
2021/07/18 07:56:48;;;;;;;6.77;1.57;;;15.30;99.90;;;;;;5038006;28;20235;-96
2021/07/18 07:59:19;;;;;;;2.67;1.30;;;15.30;99.90;;;;;;5046124;28;20261;-96
2021/07/18 08:01:59;;;;;;;3.30;1.10;;;15.30;99.90;;;;;;5067304;28;20253;-96
2021/07/18 08:04:32;;;;;;;5.40;1.40;;;15.40;99.90;;;;;;5048805;28;20289;-96
2021/07/18 08:07:03;;;;;;;6.07;1.47;;;15.50;99.90;;;;;;5039332;28;20212;-95
2021/07/18 08:09:34;;;;;;;4.73;1.60;;;15.50;99.90;;;;;;5038517;28;20235;-96
2021/07/18 08:12:07;;;;;;;5.37;1.23;;;15.50;99.90;;;;;;5038760;28;20316;-93
2021/07/18 08:14:38;;;;;;;2.53;1.10;;;15.40;99.90;;;;;;5038513;28;20213;-94
2021/07/18 08:17:13;;;;;;;3.50;1.20;;;15.40;99.90;;;;;;5038242;28;20256;-94
2021/07/18 08:19:46;;;;;;;3.47;1.10;;;15.40;99.90;;;;;;5042853;28;20232;-94
2021/07/18 08:22:17;;;;;;;2.47;1.10;;;15.40;99.90;;;;;;5038032;28;20296;-95
2021/07/18 08:24:49;;;;;;;5.47;1.40;;;15.40;99.90;;;;;;5037514;28;20205;-95
2021/07/18 08:27:20;;;;;;;3.80;1.27;;;15.40;99.90;;;;;;5038080;28;20300;-95
2021/07/18 08:29:52;;;;;;;3.60;1.13;;;15.40;99.90;;;;;;5038161;28;20221;-95
2021/07/18 08:32:25;;;;;;;4.40;1.40;;;15.50;99.90;;;;;;5037831;28;20212;-95
2021/07/18 08:34:56;;;;;;;3.37;1.30;;;15.40;99.90;;;;;;5039436;28;20295;-95
2021/07/18 08:37:28;;;;;;;5.17;1.47;;;15.40;99.90;;;;;;5039584;28;20275;-95
2021/07/18 08:40:00;;;;;;;2.37;1.00;;;15.30;99.90;;;;;;5040354;28;20233;-96
2021/07/18 08:42:31;;;;;;;3.93;1.37;;;15.30;99.90;;;;;;5041330;28;20212;-96
2021/07/18 08:45:02;;;;;;;4.70;1.30;;;15.30;99.90;;;;;;5055277;28;20209;-95
2021/07/18 08:47:36;;;;;;;4.27;1.40;;;15.30;99.90;;;;;;5057049;28;20213;-95
2021/07/18 08:50:09;;;;;;;5.33;1.33;;;15.30;99.90;;;;;;5054710;28;20228;-96
2021/07/18 08:52:40;;;;;;;4.10;1.23;;;15.30;99.90;;;;;;5037828;28;20247;-96
2021/07/18 08:55:12;;;;;;;6.87;1.70;;;15.30;99.90;;;;;;5037642;28;20197;-95
2021/07/18 08:57:44;;;;;;;4.57;1.40;;;15.20;99.90;;;;;;5037490;28;20229;-95
2021/07/18 09:00:16;;;;;;;3.80;1.40;;;15.20;99.90;;;;;;5036189;28;20291;-96
2021/07/18 09:02:51;;;;;;;3.77;1.70;;;15.20;99.90;;;;;;5037596;28;20204;-95
2021/07/18 09:05:22;;;;;;;3.47;1.40;;;15.10;99.90;;;;;;5053766;28;20200;-96
2021/07/18 09:07:55;;;;;;;3.43;1.40;;;15.10;99.90;;;;;;5077199;28;20200;-94
2021/07/18 09:10:30;;;;;;;5.23;1.47;;;15.10;99.90;;;;;;5076362;28;20200;-95
2021/07/18 09:13:07;;;;;;;4.70;1.63;;;15.10;99.90;;;;;;5060446;28;20235;-94
2021/07/18 09:15:43;;;;;;;2.57;1.30;;;15.10;99.90;;;;;;5057116;28;20204;-95
2021/07/18 09:18:17;;;;;;;6.07;1.57;;;15.10;99.90;;;;;;5039736;28;20208;-95
2021/07/18 09:20:51;;;;;;;4.70;1.50;;;15.10;99.90;;;;;;5056187;28;20227;-95
2021/07/18 09:23:24;;;;;;;5.60;1.30;;;15.10;99.90;;;;;;5056675;28;20235;-95
2021/07/18 09:26:20;;;;;;;6.03;1.50;;;15.00;99.90;;;;;;5056085;28;20220;-94
2021/07/18 09:28:51;;;;;;;3.20;1.30;;;15.00;99.90;;;;;;5056325;28;20247;-95
2021/07/18 09:31:38;;;;;;;4.50;1.77;;;15.00;99.90;;;;;;5055520;28;20687;-95
2021/07/18 09:34:19;;;;;;;4.00;1.07;;;15.00;99.90;;;;;;5039016;28;20216;-95
2021/07/18 09:36:50;;;;;;;6.57;1.40;;;15.00;99.90;;;;;;5040475;28;20248;-96
2021/07/18 09:39:21;;;;;;;2.23;1.20;;;15.00;99.90;;;;;;5036374;28;20238;-96
2021/07/18 09:41:57;;;;;;;4.50;1.37;;;14.90;99.90;;;;;;5035238;28;20521;-96
2021/07/18 09:44:29;;;;;;;5.63;1.40;;;14.90;99.90;;;;;;5035399;28;20208;-96
2021/07/18 09:47:09;;;;;;;3.90;1.30;;;14.80;99.90;;;;;;5035908;28;20372;-96
2021/07/18 09:49:43;;;;;;;3.73;1.37;;;14.80;99.90;;;;;;5035705;28;20296;-95
2021/07/18 09:52:22;;;;;;;6.43;1.50;;;14.70;99.90;;;;;;5018637;28;20201;-96
2021/07/18 09:54:55;;;;;;;3.70;1.37;;;14.70;99.90;;;;;;5035674;28;20228;-96
2021/07/18 09:57:37;;;;;;;2.67;1.37;;;14.70;99.90;;;;;;5035970;28;20225;-96
2021/07/18 10:00:10;;;;;;;4.00;1.20;;;14.60;99.90;;;;;;5031576;28;20263;-95
2021/07/18 10:02:44;;;;;;;4.97;1.20;;;14.60;99.90;;;;;;5035685;28;20237;-96
2021/07/18 10:05:29;;;;;;;4.60;1.20;;;14.50;99.90;;;;;;5035579;28;20258;-95
2021/07/18 10:08:07;;;;;;;6.90;1.73;;;14.50;99.90;;;;;;5035871;28;20220;-95
2021/07/18 10:10:39;;;;;;;4.87;1.40;;;14.40;99.90;;;;;;5034564;28;20223;-95
2021/07/18 10:13:11;;;;;;;4.33;1.37;;;14.40;99.90;;;;;;5035891;28;20299;-95
2021/07/18 10:15:41;;;;;;;4.23;1.33;;;14.30;99.90;;;;;;5038926;28;20232;-95
2021/07/18 10:18:13;;;;;;;3.67;1.20;;;14.30;99.90;;;;;;5041911;28;20241;-95
2021/07/18 10:20:46;;;;;;;5.90;1.60;;;14.30;99.90;;;;;;5039039;28;20216;-95
2021/07/18 10:23:19;;;;;;;6.30;1.60;;;14.30;99.90;;;;;;5039882;28;20220;-95
2021/07/18 10:25:57;;;;;;;5.33;1.50;;;14.30;99.90;;;;;;5040105;28;20212;-95
2021/07/18 10:28:29;;;;;;;3.00;1.30;;;14.20;99.90;;;;;;5040112;28;20208;-94
2021/07/18 10:31:03;;;;;;;5.23;1.33;;;14.20;99.90;;;;;;5038550;28;20239;-94
2021/07/18 10:33:37;;;;;;;6.47;1.70;;;14.20;99.90;;;;;;5040333;28;20220;-95
2021/07/18 10:36:13;;;;;;;4.40;1.27;;;14.20;99.90;;;;;;5040960;28;20227;-95
2021/07/18 10:38:43;;;;;;;2.90;1.47;;;14.10;99.90;;;;;;5042570;28;20208;-96
2021/07/18 10:41:15;;;;;;;7.27;1.60;;;14.10;99.90;;;;;;5041494;28;20212;-96
2021/07/18 10:43:49;;;;;;;3.60;1.13;;;14.00;99.90;;;;;;5041943;28;20212;-95
2021/07/18 10:46:53;;;;;;;4.47;1.23;;;14.00;99.90;;;;;;5043652;28;20240;-96
2021/07/18 10:49:49;;;;;;;2.30;1.07;;;14.00;99.90;;;;;;5042902;28;20307;-96
2021/07/18 10:52:25;;;;;;;3.90;1.10;;;13.90;99.90;;;;;;5043434;28;20213;-96
2021/07/18 10:54:56;;;;;;;5.13;1.20;;;13.90;99.90;;;;;;5045636;28;20208;-95
2021/07/18 10:57:33;;;;;;;6.87;1.33;;;13.90;99.90;;;;;;5060195;28;20220;-96
2021/07/18 11:00:23;;;;;;;3.07;1.10;;;13.90;99.90;;;;;;5059279;28;20260;-96
2021/07/18 11:03:08;;;;;;;1.87;0.93;;;14.00;99.90;;;;;;5059747;28;20208;-96
2021/07/18 11:05:45;;;;;;;3.67;1.30;;;14.00;99.90;;;;;;5059553;28;20193;-96
2021/07/18 11:08:18;;;;;;;5.10;1.43;;;14.00;99.90;;;;;;5042003;28;20189;-95
2021/07/18 11:10:54;;;;;;;5.20;1.33;;;14.00;99.90;;;;;;5038689;28;20213;-95
2021/07/18 11:13:26;;;;;;;4.10;1.20;;;14.00;99.90;;;;;;5022452;28;20270;-95
2021/07/18 11:15:57;;;;;;;5.80;1.60;;;13.80;99.90;;;;;;5039287;28;20642;-95
2021/07/18 11:18:37;;;;;;;2.90;1.03;;;14.00;99.90;;;;;;5039833;28;20225;-94
2021/07/18 11:21:32;;;;;;;2.73;0.97;;;14.00;99.90;;;;;;5054718;28;20268;-94
2021/07/18 11:24:05;;;;;;;3.13;1.50;;;14.10;99.90;;;;;;5060172;28;20192;-94
2021/07/18 11:26:49;;;;;;;2.17;1.20;;;14.20;99.90;;;;;;5059602;28;20227;-95
2021/07/18 11:29:35;;;;;;;4.10;1.33;;;14.20;99.90;;;;;;5054326;28;20229;-94
2021/07/18 11:32:21;;;;;;;3.97;1.30;;;14.20;99.90;;;;;;5057686;28;20271;-94
2021/07/18 11:34:53;;;;;;;2.57;1.00;;;14.10;99.90;;;;;;5033131;28;20197;-94
2021/07/18 11:37:25;;;;;;;4.03;1.10;;;14.10;99.90;;;;;;5048186;28;20240;-96
2021/07/18 11:40:19;;;;;;;2.47;0.90;;;14.10;99.90;;;;;;5046657;28;20251;-95
2021/07/18 11:42:52;;;;;;;3.63;1.20;;;14.20;99.90;;;;;;5053889;28;20200;-96
2021/07/18 11:45:24;;;;;;;2.17;1.27;;;14.10;99.90;;;;;;5053990;28;20555;-95
2021/07/18 11:47:55;;;;;;;1.43;0.87;;;14.10;99.90;;;;;;5050265;28;20217;-96
2021/07/18 11:50:27;;;;;;;5.13;1.30;;;14.10;99.90;;;;;;5040387;28;20204;-94
2021/07/18 11:53:01;;;;;;;2.30;1.00;;;14.10;99.90;;;;;;5037979;28;20239;-96
2021/07/18 11:55:34;;;;;;;2.47;0.87;;;14.00;99.90;;;;;;5037717;28;20213;-95
2021/07/18 11:58:09;;;;;;;5.33;1.43;;;14.00;99.90;;;;;;5037585;28;20263;-96
2021/07/18 12:00:41;;;;;;;2.43;1.10;;;14.00;99.90;;;;;;5037759;28;20304;-96
2021/07/18 12:03:14;;;;;;;4.93;1.20;;;13.90;99.90;;;;;;5037215;28;20645;-95
2021/07/18 12:05:45;;;;;;;3.90;1.40;;;13.90;99.90;;;;;;5037977;28;20232;-96
2021/07/18 12:08:19;;;;;;;2.70;0.90;;;13.90;99.90;;;;;;5021585;28;20292;-95
2021/07/18 12:11:05;;;;;;;3.77;1.27;;;13.90;99.90;;;;;;5024574;28;20215;-95
2021/07/18 12:13:37;;;;;;;2.13;1.00;;;13.90;99.90;;;;;;5057648;28;20204;-95
2021/07/18 12:16:09;;;;;;;4.07;0.90;;;13.80;99.90;;;;;;5057104;28;20218;-95
2021/07/18 12:18:47;;;;;;;3.60;1.17;;;13.70;99.90;;;;;;5057090;28;20231;-94
2021/07/18 12:21:22;;;;;;;4.37;1.60;;;13.70;99.90;;;;;;5056489;28;20691;-94
2021/07/18 12:24:12;;;;;;;4.43;1.20;;;13.70;99.90;;;;;;5057424;28;20231;-95
2021/07/18 12:26:48;;;;;;;5.63;1.47;;;13.70;99.90;;;;;;5056651;28;20239;-94
2021/07/18 12:29:19;;;;;;;3.00;1.00;;;13.70;99.90;;;;;;5054564;28;20284;-95
2021/07/18 12:31:51;;;;;;;5.23;1.33;;;13.70;99.90;;;;;;5019254;28;20292;-95
2021/07/18 12:34:28;;;;;;;2.83;1.10;;;13.60;99.90;;;;;;5037137;28;20231;-94
2021/07/18 12:37:02;;;;;;;2.50;1.23;;;13.60;99.90;;;;;;5036961;28;20244;-96
2021/07/18 12:39:35;;;;;;;5.60;1.10;;;13.60;99.90;;;;;;5036134;28;20233;-95
2021/07/18 12:42:10;;;;;;;4.77;1.40;;;13.60;99.90;;;;;;5019243;28;20288;-96
2021/07/18 12:44:48;;;;;;;4.50;1.23;;;13.50;99.90;;;;;;5037840;28;20726;-95
2021/07/18 12:47:31;;;;;;;3.70;0.97;;;13.50;99.90;;;;;;5037334;28;20204;-95
2021/07/18 12:50:14;;;;;;;4.20;1.30;;;13.50;99.90;;;;;;5036627;28;20216;-96
2021/07/18 12:53:00;;;;;;;4.53;1.20;;;13.50;99.90;;;;;;5034537;28;20216;-94
2021/07/18 12:55:34;;;;;;;3.13;1.10;;;13.60;99.90;;;;;;5035393;28;20228;-95
2021/07/18 12:58:27;;;;;;;4.47;1.33;;;13.50;99.90;;;;;;5019736;28;20271;-95
2021/07/18 13:01:18;;;;;;;3.57;1.40;;;13.50;99.90;;;;;;5039885;28;20254;-96
2021/07/18 13:03:52;;;;;;;2.97;1.07;;;13.40;99.90;;;;;;5026722;28;20209;-96
2021/07/18 13:06:28;;;;;;;0.93;0.83;;;13.50;99.90;;;;;;5041544;28;20205;-95
2021/07/18 13:09:04;;;;;;;4.43;1.13;;;13.50;99.90;;;;;;5039948;28;20540;-95
2021/07/18 13:14:37;;;;;;;2.33;1.33;;;13.50;99.90;;;;;;5042061;28;20243;-95
2021/07/18 13:17:16;;;;;;;5.57;1.30;;;13.60;99.90;;;;;;5044316;28;20209;-95
2021/07/18 13:20:05;;;;;;;3.07;1.13;;;13.70;99.90;;;;;;5043972;28;20283;-95
2021/07/18 13:22:46;;;;;;;1.70;0.90;;;13.70;99.90;;;;;;5026161;28;20196;-95
2021/07/18 13:25:32;;;;;;;3.17;1.20;;;13.70;99.90;;;;;;5046262;28;20217;-94